sensor_id;sensor_type;location;lat;lon;timestamp;temperature;humidity
22574;DHT22;11453;52.052;20.430;2022-08-20T00:02:09;25.50;77.00
22574;DHT22;11453;52.052;20.430;2022-08-20T00:04:36;25.50;77.30
22574;DHT22;11453;52.052;20.430;2022-08-20T00:07:02;25.40;77.40
22574;DHT22;11453;52.052;20.430;2022-08-20T00:09:27;25.40;77.70
22574;DHT22;11453;52.052;20.430;2022-08-20T00:11:53;25.30;78.10
22574;DHT22;11453;52.052;20.430;2022-08-20T00:14:19;25.30;78.40
22574;DHT22;11453;52.052;20.430;2022-08-20T00:16:44;25.30;78.90
22574;DHT22;11453;52.052;20.430;2022-08-20T00:19:10;25.30;79.20
22574;DHT22;11453;52.052;20.430;2022-08-20T00:21:36;25.30;79.50
22574;DHT22;11453;52.052;20.430;2022-08-20T00:24:03;25.20;79.50
22574;DHT22;11453;52.052;20.430;2022-08-20T00:26:29;25.20;79.90
22574;DHT22;11453;52.052;20.430;2022-08-20T00:28:54;25.10;80.20
22574;DHT22;11453;52.052;20.430;2022-08-20T00:31:22;25.10;80.40
22574;DHT22;11453;52.052;20.430;2022-08-20T00:33:49;25.10;80.50
22574;DHT22;11453;52.052;20.430;2022-08-20T00:36:15;25.10;80.80
22574;DHT22;11453;52.052;20.430;2022-08-20T00:38:43;25.10;81.10
22574;DHT22;11453;52.052;20.430;2022-08-20T00:41:12;25.00;81.40
22574;DHT22;11453;52.052;20.430;2022-08-20T00:48:42;24.90;82.50
22574;DHT22;11453;52.052;20.430;2022-08-20T00:51:13;24.90;82.80
22574;DHT22;11453;52.052;20.430;2022-08-20T00:53:40;24.90;83.20
22574;DHT22;11453;52.052;20.430;2022-08-20T00:56:07;24.80;83.40
22574;DHT22;11453;52.052;20.430;2022-08-20T00:58:35;24.80;83.80
22574;DHT22;11453;52.052;20.430;2022-08-20T01:01:02;24.80;84.10
22574;DHT22;11453;52.052;20.430;2022-08-20T01:03:29;24.80;84.50
22574;DHT22;11453;52.052;20.430;2022-08-20T01:05:55;24.80;84.80
22574;DHT22;11453;52.052;20.430;2022-08-20T01:08:22;24.70;85.10
22574;DHT22;11453;52.052;20.430;2022-08-20T01:10:50;24.70;85.30
22574;DHT22;11453;52.052;20.430;2022-08-20T01:13:21;24.70;85.30
22574;DHT22;11453;52.052;20.430;2022-08-20T01:15:50;24.70;85.30
22574;DHT22;11453;52.052;20.430;2022-08-20T01:18:22;24.70;85.50
22574;DHT22;11453;52.052;20.430;2022-08-20T01:20:59;24.70;85.60
22574;DHT22;11453;52.052;20.430;2022-08-20T01:31:06;24.70;86.10
22574;DHT22;11453;52.052;20.430;2022-08-20T01:33:32;24.70;86.10
22574;DHT22;11453;52.052;20.430;2022-08-20T01:35:58;24.60;86.20
22574;DHT22;11453;52.052;20.430;2022-08-20T01:38:25;24.50;86.90
22574;DHT22;11453;52.052;20.430;2022-08-20T01:43:17;24.40;87.90
22574;DHT22;11453;52.052;20.430;2022-08-20T01:45:42;24.40;88.30
22574;DHT22;11453;52.052;20.430;2022-08-20T01:48:08;24.30;88.80
22574;DHT22;11453;52.052;20.430;2022-08-20T01:50:35;24.20;89.50
22574;DHT22;11453;52.052;20.430;2022-08-20T01:53:16;24.20;90.00
22574;DHT22;11453;52.052;20.430;2022-08-20T01:55:42;24.20;90.20
22574;DHT22;11453;52.052;20.430;2022-08-20T01:58:08;24.10;90.40
22574;DHT22;11453;52.052;20.430;2022-08-20T02:00:34;24.10;90.50
22574;DHT22;11453;52.052;20.430;2022-08-20T02:03:01;24.10;90.60
22574;DHT22;11453;52.052;20.430;2022-08-20T02:05:28;24.00;90.80
22574;DHT22;11453;52.052;20.430;2022-08-20T02:07:54;24.10;91.20
22574;DHT22;11453;52.052;20.430;2022-08-20T02:10:20;24.00;91.40
22574;DHT22;11453;52.052;20.430;2022-08-20T02:12:47;24.00;91.60
22574;DHT22;11453;52.052;20.430;2022-08-20T02:15:13;24.00;91.90
22574;DHT22;11453;52.052;20.430;2022-08-20T02:17:39;24.00;92.10
22574;DHT22;11453;52.052;20.430;2022-08-20T02:20:10;24.00;92.20
22574;DHT22;11453;52.052;20.430;2022-08-20T02:22:47;24.00;92.20
22574;DHT22;11453;52.052;20.430;2022-08-20T02:25:15;23.90;92.30
22574;DHT22;11453;52.052;20.430;2022-08-20T02:27:43;23.90;92.50
22574;DHT22;11453;52.052;20.430;2022-08-20T02:30:17;23.90;92.80
22574;DHT22;11453;52.052;20.430;2022-08-20T02:32:44;23.80;93.10
22574;DHT22;11453;52.052;20.430;2022-08-20T02:35:10;23.80;93.40
22574;DHT22;11453;52.052;20.430;2022-08-20T02:37:39;23.80;93.70
22574;DHT22;11453;52.052;20.430;2022-08-20T02:40:07;23.70;93.90
22574;DHT22;11453;52.052;20.430;2022-08-20T02:42:34;23.70;94.10
22574;DHT22;11453;52.052;20.430;2022-08-20T02:45:00;23.70;94.40
22574;DHT22;11453;52.052;20.430;2022-08-20T02:47:26;23.60;94.80
22574;DHT22;11453;52.052;20.430;2022-08-20T02:49:53;23.50;95.10
22574;DHT22;11453;52.052;20.430;2022-08-20T02:52:19;23.40;95.50
22574;DHT22;11453;52.052;20.430;2022-08-20T02:54:46;23.30;96.00
22574;DHT22;11453;52.052;20.430;2022-08-20T02:57:15;23.20;96.30
22574;DHT22;11453;52.052;20.430;2022-08-20T02:59:45;23.20;96.60
22574;DHT22;11453;52.052;20.430;2022-08-20T03:02:11;23.10;97.00
22574;DHT22;11453;52.052;20.430;2022-08-20T03:04:37;23.10;97.30
22574;DHT22;11453;52.052;20.430;2022-08-20T03:07:04;23.00;97.60
22574;DHT22;11453;52.052;20.430;2022-08-20T03:09:31;23.00;97.80
22574;DHT22;11453;52.052;20.430;2022-08-20T03:11:56;23.00;98.00
22574;DHT22;11453;52.052;20.430;2022-08-20T03:14:22;23.10;98.20
22574;DHT22;11453;52.052;20.430;2022-08-20T03:16:48;23.00;98.30
22574;DHT22;11453;52.052;20.430;2022-08-20T03:19:13;23.00;98.50
22574;DHT22;11453;52.052;20.430;2022-08-20T03:21:39;23.00;98.70
22574;DHT22;11453;52.052;20.430;2022-08-20T03:24:05;23.00;98.80
22574;DHT22;11453;52.052;20.430;2022-08-20T03:26:30;23.00;99.00
22574;DHT22;11453;52.052;20.430;2022-08-20T03:28:56;23.00;99.30
22574;DHT22;11453;52.052;20.430;2022-08-20T03:31:22;22.90;99.50
22574;DHT22;11453;52.052;20.430;2022-08-20T03:33:48;22.90;99.70
22574;DHT22;11453;52.052;20.430;2022-08-20T03:36:13;22.90;99.80
22574;DHT22;11453;52.052;20.430;2022-08-20T03:38:39;22.90;99.90
22574;DHT22;11453;52.052;20.430;2022-08-20T03:41:04;22.90;99.90
22574;DHT22;11453;52.052;20.430;2022-08-20T03:43:30;22.90;99.90
22574;DHT22;11453;52.052;20.430;2022-08-20T03:45:57;22.90;99.90
22574;DHT22;11453;52.052;20.430;2022-08-20T03:48:22;22.90;99.90
22574;DHT22;11453;52.052;20.430;2022-08-20T03:50:49;22.90;99.90
22574;DHT22;11453;52.052;20.430;2022-08-20T03:53:15;22.90;99.90
22574;DHT22;11453;52.052;20.430;2022-08-20T03:55:44;23.00;99.90
22574;DHT22;11453;52.052;20.430;2022-08-20T03:58:11;23.00;99.90
22574;DHT22;11453;52.052;20.430;2022-08-20T04:00:48;23.00;99.90
22574;DHT22;11453;52.052;20.430;2022-08-20T04:03:14;23.00;99.90
22574;DHT22;11453;52.052;20.430;2022-08-20T04:05:41;23.00;99.90
22574;DHT22;11453;52.052;20.430;2022-08-20T04:08:10;22.90;99.90
22574;DHT22;11453;52.052;20.430;2022-08-20T04:10:36;22.90;99.90
22574;DHT22;11453;52.052;20.430;2022-08-20T04:13:03;22.90;99.90
22574;DHT22;11453;52.052;20.430;2022-08-20T04:15:29;22.90;99.90
22574;DHT22;11453;52.052;20.430;2022-08-20T04:17:56;23.00;99.90
22574;DHT22;11453;52.052;20.430;2022-08-20T04:20:23;23.00;99.90
22574;DHT22;11453;52.052;20.430;2022-08-20T04:22:51;23.00;99.90
22574;DHT22;11453;52.052;20.430;2022-08-20T04:25:17;23.00;99.90
22574;DHT22;11453;52.052;20.430;2022-08-20T04:27:44;23.00;99.90
22574;DHT22;11453;52.052;20.430;2022-08-20T04:30:12;23.00;99.90
22574;DHT22;11453;52.052;20.430;2022-08-20T04:32:39;23.00;99.90
22574;DHT22;11453;52.052;20.430;2022-08-20T04:35:08;23.00;99.90
22574;DHT22;11453;52.052;20.430;2022-08-20T04:37:34;23.00;99.90
22574;DHT22;11453;52.052;20.430;2022-08-20T04:40:05;23.00;99.90
22574;DHT22;11453;52.052;20.430;2022-08-20T04:42:49;23.00;99.90
22574;DHT22;11453;52.052;20.430;2022-08-20T04:45:15;23.00;99.90
22574;DHT22;11453;52.052;20.430;2022-08-20T04:47:41;23.10;99.90
22574;DHT22;11453;52.052;20.430;2022-08-20T04:50:08;23.10;99.90
22574;DHT22;11453;52.052;20.430;2022-08-20T04:52:34;23.10;99.90
22574;DHT22;11453;52.052;20.430;2022-08-20T04:55:00;23.20;99.90
22574;DHT22;11453;52.052;20.430;2022-08-20T04:57:26;23.20;99.90
22574;DHT22;11453;52.052;20.430;2022-08-20T04:59:52;23.20;99.90
22574;DHT22;11453;52.052;20.430;2022-08-20T05:02:19;23.30;99.90
22574;DHT22;11453;52.052;20.430;2022-08-20T05:04:45;23.30;99.90
22574;DHT22;11453;52.052;20.430;2022-08-20T05:07:15;23.20;99.90
22574;DHT22;11453;52.052;20.430;2022-08-20T05:09:42;23.10;99.90
22574;DHT22;11453;52.052;20.430;2022-08-20T05:12:08;23.10;99.90
22574;DHT22;11453;52.052;20.430;2022-08-20T05:14:34;23.10;99.90
22574;DHT22;11453;52.052;20.430;2022-08-20T05:17:03;23.10;99.90
22574;DHT22;11453;52.052;20.430;2022-08-20T05:19:30;23.10;99.90
22574;DHT22;11453;52.052;20.430;2022-08-20T05:21:56;23.20;99.90
22574;DHT22;11453;52.052;20.430;2022-08-20T05:24:23;23.20;99.90
22574;DHT22;11453;52.052;20.430;2022-08-20T05:26:48;23.20;99.90
22574;DHT22;11453;52.052;20.430;2022-08-20T05:29:14;23.10;99.90
22574;DHT22;11453;52.052;20.430;2022-08-20T05:31:40;23.10;99.90
22574;DHT22;11453;52.052;20.430;2022-08-20T05:34:08;23.10;99.90
22574;DHT22;11453;52.052;20.430;2022-08-20T05:36:36;23.10;99.90
22574;DHT22;11453;52.052;20.430;2022-08-20T05:39:02;23.10;99.90
22574;DHT22;11453;52.052;20.430;2022-08-20T05:41:28;23.00;99.90
22574;DHT22;11453;52.052;20.430;2022-08-20T05:43:54;23.00;99.90
22574;DHT22;11453;52.052;20.430;2022-08-20T05:46:20;23.00;99.90
22574;DHT22;11453;52.052;20.430;2022-08-20T05:48:47;23.00;99.90
22574;DHT22;11453;52.052;20.430;2022-08-20T05:51:13;22.90;99.90
22574;DHT22;11453;52.052;20.430;2022-08-20T05:53:39;22.90;99.90
22574;DHT22;11453;52.052;20.430;2022-08-20T05:56:06;22.90;99.90
22574;DHT22;11453;52.052;20.430;2022-08-20T05:58:31;22.90;99.90
22574;DHT22;11453;52.052;20.430;2022-08-20T06:00:57;22.90;99.90
22574;DHT22;11453;52.052;20.430;2022-08-20T06:03:23;22.90;99.90
22574;DHT22;11453;52.052;20.430;2022-08-20T06:06:08;23.00;99.90
22574;DHT22;11453;52.052;20.430;2022-08-20T06:08:34;23.00;99.90
22574;DHT22;11453;52.052;20.430;2022-08-20T06:11:00;23.00;99.90
22574;DHT22;11453;52.052;20.430;2022-08-20T06:13:26;23.00;99.90
22574;DHT22;11453;52.052;20.430;2022-08-20T06:15:54;23.10;99.90
22574;DHT22;11453;52.052;20.430;2022-08-20T06:18:19;23.10;99.90
22574;DHT22;11453;52.052;20.430;2022-08-20T06:20:45;23.10;99.90
22574;DHT22;11453;52.052;20.430;2022-08-20T06:23:11;23.10;99.90
22574;DHT22;11453;52.052;20.430;2022-08-20T06:25:37;23.20;99.90
22574;DHT22;11453;52.052;20.430;2022-08-20T06:28:03;23.30;99.90
22574;DHT22;11453;52.052;20.430;2022-08-20T06:30:30;23.30;99.90
22574;DHT22;11453;52.052;20.430;2022-08-20T06:32:56;23.30;99.90
22574;DHT22;11453;52.052;20.430;2022-08-20T06:35:21;23.40;99.90
22574;DHT22;11453;52.052;20.430;2022-08-20T06:37:48;23.50;99.90
22574;DHT22;11453;52.052;20.430;2022-08-20T06:40:17;23.50;99.90
22574;DHT22;11453;52.052;20.430;2022-08-20T06:42:44;23.40;99.90
22574;DHT22;11453;52.052;20.430;2022-08-20T06:45:15;23.50;99.90
22574;DHT22;11453;52.052;20.430;2022-08-20T06:47:43;23.50;99.90
22574;DHT22;11453;52.052;20.430;2022-08-20T06:50:14;23.60;99.90
22574;DHT22;11453;52.052;20.430;2022-08-20T06:52:40;23.70;99.90
22574;DHT22;11453;52.052;20.430;2022-08-20T06:55:08;23.80;99.90
22574;DHT22;11453;52.052;20.430;2022-08-20T06:57:36;24.00;99.90
22574;DHT22;11453;52.052;20.430;2022-08-20T07:00:07;24.10;99.90
22574;DHT22;11453;52.052;20.430;2022-08-20T07:02:33;24.20;99.90
22574;DHT22;11453;52.052;20.430;2022-08-20T07:05:01;24.30;99.90
22574;DHT22;11453;52.052;20.430;2022-08-20T07:07:27;24.40;99.90
22574;DHT22;11453;52.052;20.430;2022-08-20T07:10:10;24.40;99.90
22574;DHT22;11453;52.052;20.430;2022-08-20T07:12:36;24.50;99.90
22574;DHT22;11453;52.052;20.430;2022-08-20T07:15:03;24.50;99.90
22574;DHT22;11453;52.052;20.430;2022-08-20T07:17:29;24.60;99.90
22574;DHT22;11453;52.052;20.430;2022-08-20T07:19:55;24.70;99.90
22574;DHT22;11453;52.052;20.430;2022-08-20T07:22:24;24.90;99.90
22574;DHT22;11453;52.052;20.430;2022-08-20T07:24:50;25.00;99.90
22574;DHT22;11453;52.052;20.430;2022-08-20T07:27:21;25.10;99.90
22574;DHT22;11453;52.052;20.430;2022-08-20T07:29:47;25.20;99.90
22574;DHT22;11453;52.052;20.430;2022-08-20T07:32:31;25.30;99.90
22574;DHT22;11453;52.052;20.430;2022-08-20T07:35:09;25.50;99.90
22574;DHT22;11453;52.052;20.430;2022-08-20T07:37:43;25.60;99.90
22574;DHT22;11453;52.052;20.430;2022-08-20T07:40:16;25.80;99.90
22574;DHT22;11453;52.052;20.430;2022-08-20T07:42:43;26.00;99.60
22574;DHT22;11453;52.052;20.430;2022-08-20T07:45:11;26.10;99.30
22574;DHT22;11453;52.052;20.430;2022-08-20T07:47:41;26.10;98.90
22574;DHT22;11453;52.052;20.430;2022-08-20T07:50:09;26.20;98.70
22574;DHT22;11453;52.052;20.430;2022-08-20T07:52:35;26.30;98.50
22574;DHT22;11453;52.052;20.430;2022-08-20T07:55:06;26.30;98.30
22574;DHT22;11453;52.052;20.430;2022-08-20T07:57:33;26.30;98.00
22574;DHT22;11453;52.052;20.430;2022-08-20T07:59:58;26.30;97.90
22574;DHT22;11453;52.052;20.430;2022-08-20T08:02:27;26.40;97.80
22574;DHT22;11453;52.052;20.430;2022-08-20T08:04:54;26.40;97.70
22574;DHT22;11453;52.052;20.430;2022-08-20T08:07:20;26.40;97.50
22574;DHT22;11453;52.052;20.430;2022-08-20T08:09:48;26.50;97.40
22574;DHT22;11453;52.052;20.430;2022-08-20T08:12:14;26.50;97.20
22574;DHT22;11453;52.052;20.430;2022-08-20T08:14:42;26.60;97.10
22574;DHT22;11453;52.052;20.430;2022-08-20T08:17:09;26.70;97.00
22574;DHT22;11453;52.052;20.430;2022-08-20T08:19:42;26.80;96.80
22574;DHT22;11453;52.052;20.430;2022-08-20T08:22:12;26.90;96.30
22574;DHT22;11453;52.052;20.430;2022-08-20T08:24:39;26.90;96.30
22574;DHT22;11453;52.052;20.430;2022-08-20T08:27:06;26.90;96.30
22574;DHT22;11453;52.052;20.430;2022-08-20T08:29:33;27.00;96.20
22574;DHT22;11453;52.052;20.430;2022-08-20T08:32:01;27.00;96.00
22574;DHT22;11453;52.052;20.430;2022-08-20T08:34:27;27.10;95.90
22574;DHT22;11453;52.052;20.430;2022-08-20T08:36:53;27.20;96.10
22574;DHT22;11453;52.052;20.430;2022-08-20T08:39:19;27.20;95.60
22574;DHT22;11453;52.052;20.430;2022-08-20T08:41:48;27.30;95.40
22574;DHT22;11453;52.052;20.430;2022-08-20T08:44:21;27.40;95.40
22574;DHT22;11453;52.052;20.430;2022-08-20T08:46:56;27.40;95.40
22574;DHT22;11453;52.052;20.430;2022-08-20T08:49:29;27.50;95.20
22574;DHT22;11453;52.052;20.430;2022-08-20T08:52:04;27.50;95.20
22574;DHT22;11453;52.052;20.430;2022-08-20T08:54:33;27.70;94.90
22574;DHT22;11453;52.052;20.430;2022-08-20T08:56:59;27.70;94.40
22574;DHT22;11453;52.052;20.430;2022-08-20T08:59:28;27.80;94.10
22574;DHT22;11453;52.052;20.430;2022-08-20T09:01:57;28.00;94.10
22574;DHT22;11453;52.052;20.430;2022-08-20T09:04:31;28.00;94.20
22574;DHT22;11453;52.052;20.430;2022-08-20T09:06:58;28.10;94.00
22574;DHT22;11453;52.052;20.430;2022-08-20T09:09:32;28.30;93.70
22574;DHT22;11453;52.052;20.430;2022-08-20T09:12:15;28.40;93.20
22574;DHT22;11453;52.052;20.430;2022-08-20T09:14:45;28.50;93.30
22574;DHT22;11453;52.052;20.430;2022-08-20T09:17:13;28.50;92.40
22574;DHT22;11453;52.052;20.430;2022-08-20T09:19:39;28.60;92.20
22574;DHT22;11453;52.052;20.430;2022-08-20T09:22:17;28.60;91.90
22574;DHT22;11453;52.052;20.430;2022-08-20T09:24:43;28.70;91.70
22574;DHT22;11453;52.052;20.430;2022-08-20T09:27:10;28.70;91.50
22574;DHT22;11453;52.052;20.430;2022-08-20T09:29:36;28.80;91.40
22574;DHT22;11453;52.052;20.430;2022-08-20T09:32:07;28.90;90.70
22574;DHT22;11453;52.052;20.430;2022-08-20T09:34:38;29.00;90.60
22574;DHT22;11453;52.052;20.430;2022-08-20T09:37:04;29.00;90.20
22574;DHT22;11453;52.052;20.430;2022-08-20T09:39:30;29.10;89.60
22574;DHT22;11453;52.052;20.430;2022-08-20T09:42:24;29.20;88.50
22574;DHT22;11453;52.052;20.430;2022-08-20T09:44:51;29.30;87.80
22574;DHT22;11453;52.052;20.430;2022-08-20T09:47:17;29.40;87.30
22574;DHT22;11453;52.052;20.430;2022-08-20T09:49:45;29.40;86.40
22574;DHT22;11453;52.052;20.430;2022-08-20T09:52:36;29.50;85.70
22574;DHT22;11453;52.052;20.430;2022-08-20T09:55:20;29.50;84.00
22574;DHT22;11453;52.052;20.430;2022-08-20T09:57:47;29.60;84.30
22574;DHT22;11453;52.052;20.430;2022-08-20T10:00:13;29.70;84.60
22574;DHT22;11453;52.052;20.430;2022-08-20T10:02:40;29.80;84.40
22574;DHT22;11453;52.052;20.430;2022-08-20T10:05:06;29.90;84.60
22574;DHT22;11453;52.052;20.430;2022-08-20T10:07:34;30.10;84.30
22574;DHT22;11453;52.052;20.430;2022-08-20T10:10:00;30.20;83.50
22574;DHT22;11453;52.052;20.430;2022-08-20T10:12:26;30.20;82.10
22574;DHT22;11453;52.052;20.430;2022-08-20T10:14:52;30.20;81.90
22574;DHT22;11453;52.052;20.430;2022-08-20T10:17:20;30.20;82.30
22574;DHT22;11453;52.052;20.430;2022-08-20T10:19:46;30.10;80.10
22574;DHT22;11453;52.052;20.430;2022-08-20T10:22:11;30.00;79.60
22574;DHT22;11453;52.052;20.430;2022-08-20T10:24:37;30.00;79.70
22574;DHT22;11453;52.052;20.430;2022-08-20T10:27:03;30.00;79.70
22574;DHT22;11453;52.052;20.430;2022-08-20T10:29:29;30.00;80.30
22574;DHT22;11453;52.052;20.430;2022-08-20T10:31:55;30.20;80.00
22574;DHT22;11453;52.052;20.430;2022-08-20T10:34:24;30.30;79.20
22574;DHT22;11453;52.052;20.430;2022-08-20T10:36:49;30.40;79.20
22574;DHT22;11453;52.052;20.430;2022-08-20T10:39:15;30.60;78.20
22574;DHT22;11453;52.052;20.430;2022-08-20T10:41:41;30.80;77.20
22574;DHT22;11453;52.052;20.430;2022-08-20T10:44:07;31.00;77.10
22574;DHT22;11453;52.052;20.430;2022-08-20T10:46:33;31.20;76.90
22574;DHT22;11453;52.052;20.430;2022-08-20T10:48:59;31.40;76.50
22574;DHT22;11453;52.052;20.430;2022-08-20T10:51:25;31.60;75.20
22574;DHT22;11453;52.052;20.430;2022-08-20T10:53:50;31.70;75.10
22574;DHT22;11453;52.052;20.430;2022-08-20T10:56:16;31.70;75.00
22574;DHT22;11453;52.052;20.430;2022-08-20T10:58:42;31.80;73.90
22574;DHT22;11453;52.052;20.430;2022-08-20T11:01:07;31.80;74.70
22574;DHT22;11453;52.052;20.430;2022-08-20T11:03:33;31.90;74.90
22574;DHT22;11453;52.052;20.430;2022-08-20T11:05:59;32.10;73.60
22574;DHT22;11453;52.052;20.430;2022-08-20T11:08:25;32.10;72.80
22574;DHT22;11453;52.052;20.430;2022-08-20T11:10:51;32.30;73.30
22574;DHT22;11453;52.052;20.430;2022-08-20T11:13:17;32.40;72.30
22574;DHT22;11453;52.052;20.430;2022-08-20T11:15:43;32.50;71.90
22574;DHT22;11453;52.052;20.430;2022-08-20T11:18:10;32.60;70.10
22574;DHT22;11453;52.052;20.430;2022-08-20T11:20:37;32.90;69.70
22574;DHT22;11453;52.052;20.430;2022-08-20T11:23:03;33.10;69.40
22574;DHT22;11453;52.052;20.430;2022-08-20T11:25:29;33.20;67.70
22574;DHT22;11453;52.052;20.430;2022-08-20T11:27:56;33.40;68.00
22574;DHT22;11453;52.052;20.430;2022-08-20T11:30:23;33.60;68.20
22574;DHT22;11453;52.052;20.430;2022-08-20T11:32:49;33.80;67.40
22574;DHT22;11453;52.052;20.430;2022-08-20T11:35:15;33.90;67.10
22574;DHT22;11453;52.052;20.430;2022-08-20T11:37:41;34.00;66.50
22574;DHT22;11453;52.052;20.430;2022-08-20T11:40:07;34.10;65.80
22574;DHT22;11453;52.052;20.430;2022-08-20T11:42:34;34.20;65.10
22574;DHT22;11453;52.052;20.430;2022-08-20T11:45:00;34.10;63.00
22574;DHT22;11453;52.052;20.430;2022-08-20T11:47:27;34.20;63.90
22574;DHT22;11453;52.052;20.430;2022-08-20T11:50:14;34.40;63.70
22574;DHT22;11453;52.052;20.430;2022-08-20T11:52:40;34.50;62.70
22574;DHT22;11453;52.052;20.430;2022-08-20T11:55:08;34.70;62.30
22574;DHT22;11453;52.052;20.430;2022-08-20T11:57:36;34.90;62.10
22574;DHT22;11453;52.052;20.430;2022-08-20T12:00:06;35.20;62.40
22574;DHT22;11453;52.052;20.430;2022-08-20T12:02:34;35.50;61.10
22574;DHT22;11453;52.052;20.430;2022-08-20T12:05:00;35.80;60.00
22574;DHT22;11453;52.052;20.430;2022-08-20T12:07:26;36.10;59.40
22574;DHT22;11453;52.052;20.430;2022-08-20T12:09:52;36.40;59.00
22574;DHT22;11453;52.052;20.430;2022-08-20T12:12:19;36.70;58.20
22574;DHT22;11453;52.052;20.430;2022-08-20T12:14:46;36.80;57.70
22574;DHT22;11453;52.052;20.430;2022-08-20T12:17:21;37.00;57.10
22574;DHT22;11453;52.052;20.430;2022-08-20T12:19:49;37.10;56.30
22574;DHT22;11453;52.052;20.430;2022-08-20T12:22:15;36.80;56.50
22574;DHT22;11453;52.052;20.430;2022-08-20T12:24:41;36.40;56.80
22574;DHT22;11453;52.052;20.430;2022-08-20T12:27:19;36.10;57.40
22574;DHT22;11453;52.052;20.430;2022-08-20T12:29:46;36.60;57.50
22574;DHT22;11453;52.052;20.430;2022-08-20T12:32:13;37.00;55.50
22574;DHT22;11453;52.052;20.430;2022-08-20T12:34:40;37.50;55.30
22574;DHT22;11453;52.052;20.430;2022-08-20T12:37:09;38.10;54.70
22574;DHT22;11453;52.052;20.430;2022-08-20T12:39:37;39.10;52.90
22574;DHT22;11453;52.052;20.430;2022-08-20T12:42:05;40.20;50.70
22574;DHT22;11453;52.052;20.430;2022-08-20T12:44:31;41.30;48.30
22574;DHT22;11453;52.052;20.430;2022-08-20T12:49:41;43.60;43.80
22574;DHT22;11453;52.052;20.430;2022-08-20T12:52:08;43.40;42.40
22574;DHT22;11453;52.052;20.430;2022-08-20T12:54:34;42.30;43.10
22574;DHT22;11453;52.052;20.430;2022-08-20T12:57:00;42.00;43.70
22574;DHT22;11453;52.052;20.430;2022-08-20T12:59:26;41.10;44.00
22574;DHT22;11453;52.052;20.430;2022-08-20T13:01:53;40.20;45.40
22574;DHT22;11453;52.052;20.430;2022-08-20T13:04:19;40.20;46.20
22574;DHT22;11453;52.052;20.430;2022-08-20T13:06:45;41.40;44.80
22574;DHT22;11453;52.052;20.430;2022-08-20T13:09:12;42.90;42.70
22574;DHT22;11453;52.052;20.430;2022-08-20T13:11:37;44.20;40.60
22574;DHT22;11453;52.052;20.430;2022-08-20T13:14:03;45.20;39.30
22574;DHT22;11453;52.052;20.430;2022-08-20T13:16:29;45.60;38.00
22574;DHT22;11453;52.052;20.430;2022-08-20T13:18:55;44.80;38.90
22574;DHT22;11453;52.052;20.430;2022-08-20T13:21:20;44.10;39.60
22574;DHT22;11453;52.052;20.430;2022-08-20T13:23:46;43.80;39.90
22574;DHT22;11453;52.052;20.430;2022-08-20T13:26:12;43.50;40.10
22574;DHT22;11453;52.052;20.430;2022-08-20T13:28:37;43.20;40.30
22574;DHT22;11453;52.052;20.430;2022-08-20T13:31:03;42.80;41.20
22574;DHT22;11453;52.052;20.430;2022-08-20T13:33:29;42.30;41.60
22574;DHT22;11453;52.052;20.430;2022-08-20T13:35:55;42.20;42.00
22574;DHT22;11453;52.052;20.430;2022-08-20T13:38:21;42.00;42.20
22574;DHT22;11453;52.052;20.430;2022-08-20T13:40:47;41.90;42.40
22574;DHT22;11453;52.052;20.430;2022-08-20T13:43:12;41.70;43.70
22574;DHT22;11453;52.052;20.430;2022-08-20T13:45:39;41.90;44.90
22574;DHT22;11453;52.052;20.430;2022-08-20T13:48:06;42.10;45.70
22574;DHT22;11453;52.052;20.430;2022-08-20T13:50:32;42.20;44.90
22574;DHT22;11453;52.052;20.430;2022-08-20T13:52:57;42.20;44.70
22574;DHT22;11453;52.052;20.430;2022-08-20T13:55:25;42.00;45.40
22574;DHT22;11453;52.052;20.430;2022-08-20T13:57:51;42.00;45.20
22574;DHT22;11453;52.052;20.430;2022-08-20T14:00:24;41.90;44.50
22574;DHT22;11453;52.052;20.430;2022-08-20T14:02:50;41.60;44.20
22574;DHT22;11453;52.052;20.430;2022-08-20T14:05:16;41.20;45.10
22574;DHT22;11453;52.052;20.430;2022-08-20T14:07:42;40.80;45.40
22574;DHT22;11453;52.052;20.430;2022-08-20T14:10:13;40.30;45.70
22574;DHT22;11453;52.052;20.430;2022-08-20T14:12:39;39.80;46.30
22574;DHT22;11453;52.052;20.430;2022-08-20T14:15:06;39.30;47.10
22574;DHT22;11453;52.052;20.430;2022-08-20T14:17:38;38.70;48.30
22574;DHT22;11453;52.052;20.430;2022-08-20T14:20:10;38.20;49.20
22574;DHT22;11453;52.052;20.430;2022-08-20T14:22:37;37.70;49.80
22574;DHT22;11453;52.052;20.430;2022-08-20T14:25:04;37.30;51.10
22574;DHT22;11453;52.052;20.430;2022-08-20T14:27:31;37.00;50.00
22574;DHT22;11453;52.052;20.430;2022-08-20T14:29:59;36.70;50.20
22574;DHT22;11453;52.052;20.430;2022-08-20T14:32:25;36.40;51.90
22574;DHT22;11453;52.052;20.430;2022-08-20T14:34:52;36.10;52.40
22574;DHT22;11453;52.052;20.430;2022-08-20T14:37:23;35.90;52.40
22574;DHT22;11453;52.052;20.430;2022-08-20T14:39:51;35.60;53.00
22574;DHT22;11453;52.052;20.430;2022-08-20T14:42:18;35.30;53.30
22574;DHT22;11453;52.052;20.430;2022-08-20T14:44:45;35.10;53.80
22574;DHT22;11453;52.052;20.430;2022-08-20T14:47:11;34.80;53.50
22574;DHT22;11453;52.052;20.430;2022-08-20T14:49:37;34.60;54.10
22574;DHT22;11453;52.052;20.430;2022-08-20T14:52:03;34.40;54.10
22574;DHT22;11453;52.052;20.430;2022-08-20T14:54:29;34.10;54.80
22574;DHT22;11453;52.052;20.430;2022-08-20T14:56:57;33.90;55.50
22574;DHT22;11453;52.052;20.430;2022-08-20T14:59:23;33.60;55.80
22574;DHT22;11453;52.052;20.430;2022-08-20T15:01:49;33.30;56.20
22574;DHT22;11453;52.052;20.430;2022-08-20T15:04:14;33.00;57.00
22574;DHT22;11453;52.052;20.430;2022-08-20T15:06:40;32.80;57.20
22574;DHT22;11453;52.052;20.430;2022-08-20T15:09:06;32.60;57.80
22574;DHT22;11453;52.052;20.430;2022-08-20T15:11:31;32.40;58.00
22574;DHT22;11453;52.052;20.430;2022-08-20T15:13:57;32.30;58.20
22574;DHT22;11453;52.052;20.430;2022-08-20T15:16:22;32.10;58.50
22574;DHT22;11453;52.052;20.430;2022-08-20T15:18:48;32.00;58.80
22574;DHT22;11453;52.052;20.430;2022-08-20T15:21:14;31.90;58.80
22574;DHT22;11453;52.052;20.430;2022-08-20T15:23:39;31.80;59.30
22574;DHT22;11453;52.052;20.430;2022-08-20T15:26:05;31.70;60.20
22574;DHT22;11453;52.052;20.430;2022-08-20T15:28:31;31.60;61.70
22574;DHT22;11453;52.052;20.430;2022-08-20T15:30:57;31.50;61.80
22574;DHT22;11453;52.052;20.430;2022-08-20T15:33:23;31.40;61.90
22574;DHT22;11453;52.052;20.430;2022-08-20T15:35:48;31.30;61.70